Time;durP1;ratioP1;P1;durP2;ratioP2;P2;SDS_P1;SDS_P2;PMS_P1;PMS_P2;Temp;Humidity;BMP_temperature;BMP_pressure;BME280_temperature;BME280_humidity;BME280_pressure;Samples;Min_cycle;Max_cycle;Signal;HPM_P1;HPM_P2
2022/09/30 00:00:19;;;;;;;2.47;1.70;;;8.50;95.00;;;;;;5046832;28;20025;-57
2022/09/30 00:02:44;;;;;;;1.70;1.48;;;8.40;95.10;;;;;;5042213;28;20036;-55
2022/09/30 00:05:10;;;;;;;2.10;1.60;;;8.40;95.20;;;;;;5039791;28;20013;-56
2022/09/30 00:07:36;;;;;;;1.98;1.48;;;8.40;95.20;;;;;;5042619;28;20029;-56
2022/09/30 00:10:01;;;;;;;2.03;1.38;;;8.30;95.30;;;;;;5055525;28;20032;-57
2022/09/30 00:12:27;;;;;;;1.58;1.27;;;8.30;95.30;;;;;;5044799;28;20061;-56
2022/09/30 00:14:53;;;;;;;2.42;1.88;;;8.30;95.30;;;;;;5046615;28;20028;-57
2022/09/30 00:17:19;;;;;;;2.95;2.10;;;8.30;95.40;;;;;;5039460;28;20029;-55
2022/09/30 00:19:45;;;;;;;2.88;2.33;;;8.30;95.50;;;;;;5040145;28;20473;-56
2022/09/30 00:22:11;;;;;;;3.83;1.60;;;8.20;95.50;;;;;;5040815;28;20510;-57
2022/09/30 00:24:37;;;;;;;1.10;0.93;;;8.20;95.60;;;;;;5046858;28;20067;-57
2022/09/30 00:27:02;;;;;;;1.48;1.00;;;8.20;95.60;;;;;;5049551;28;20056;-57
2022/09/30 00:29:28;;;;;;;2.97;1.00;;;8.10;95.70;;;;;;5045279;28;20037;-55
2022/09/30 00:31:54;;;;;;;1.50;0.80;;;8.00;95.80;;;;;;5048130;28;20031;-56
2022/09/30 00:34:19;;;;;;;1.60;1.00;;;8.00;95.90;;;;;;5044242;28;20536;-56
2022/09/30 00:36:54;;;;;;;1.15;0.82;;;8.00;95.90;;;;;;5048883;28;20033;-56
2022/09/30 00:39:23;;;;;;;1.48;1.00;;;8.00;96.00;;;;;;5046972;28;20468;-56
2022/09/30 00:41:52;;;;;;;1.35;0.90;;;8.00;96.00;;;;;;5048988;28;20063;-55
2022/09/30 00:44:57;;;;;;;1.10;1.00;;;7.90;96.00;;;;;;5042486;28;20096;-56
2022/09/30 00:47:42;;;;;;;1.20;1.02;;;7.90;96.00;;;;;;5038040;28;20837;-57
2022/09/30 00:50:45;;;;;;;2.78;1.30;;;7.90;96.10;;;;;;5044051;28;20025;-56
2022/09/30 00:53:29;;;;;;;1.90;1.10;;;7.80;96.10;;;;;;5046414;28;20025;-56
2022/09/30 00:56:03;;;;;;;1.88;1.00;;;7.80;96.30;;;;;;5045533;28;20033;-56
2022/09/30 00:58:37;;;;;;;2.80;1.10;;;7.70;96.40;;;;;;5048992;28;20835;-57
2022/09/30 01:01:03;;;;;;;1.48;1.00;;;7.70;96.50;;;;;;5043504;28;20052;-56
2022/09/30 01:03:50;;;;;;;4.32;0.88;;;7.70;96.50;;;;;;5045058;28;20174;-56
2022/09/30 01:06:18;;;;;;;1.30;0.85;;;7.70;96.50;;;;;;5047052;28;20083;-57
2022/09/30 01:08:45;;;;;;;1.02;0.80;;;7.70;96.60;;;;;;5046894;28;20048;-56
2022/09/30 01:11:11;;;;;;;0.70;0.60;;;7.60;96.60;;;;;;5039151;28;20021;-57
2022/09/30 01:13:38;;;;;;;1.48;0.88;;;7.60;96.60;;;;;;5063955;28;20556;-55
2022/09/30 01:16:45;;;;;;;1.15;0.95;;;7.60;96.70;;;;;;5053383;28;20043;-56
2022/09/30 01:19:40;;;;;;;1.55;1.20;;;7.60;96.70;;;;;;5045353;28;20032;-57
2022/09/30 01:22:12;;;;;;;2.20;1.33;;;7.60;96.80;;;;;;5044949;28;20021;-56
2022/09/30 01:25:03;;;;;;;3.28;2.10;;;7.60;96.80;;;;;;5045851;28;20060;-56
2022/09/30 01:27:53;;;;;;;2.47;1.80;;;7.60;96.80;;;;;;5038804;28;20021;-55
2022/09/30 01:30:45;;;;;;;3.08;1.92;;;7.60;96.80;;;;;;5043340;28;20029;-57
2022/09/30 01:33:32;;;;;;;1.77;1.60;;;7.50;96.80;;;;;;5024280;28;20040;-56
2022/09/30 01:36:19;;;;;;;1.90;1.50;;;7.50;96.90;;;;;;5049988;28;20556;-55
2022/09/30 01:39:07;;;;;;;3.47;2.33;;;7.50;96.90;;;;;;5050270;28;20063;-56
2022/09/30 01:41:48;;;;;;;2.95;2.08;;;7.40;97.00;;;;;;5040461;28;20041;-57
2022/09/30 01:44:30;;;;;;;2.90;2.50;;;7.40;97.00;;;;;;5051259;28;20135;-56
2022/09/30 01:47:07;;;;;;;3.30;2.70;;;7.40;97.00;;;;;;5044922;28;20087;-56
2022/09/30 01:49:33;;;;;;;3.63;2.90;;;7.40;97.00;;;;;;5054252;28;20480;-55
2022/09/30 01:52:07;;;;;;;2.90;2.30;;;7.40;97.00;;;;;;5043775;28;20036;-57
2022/09/30 01:54:48;;;;;;;3.95;3.10;;;7.40;97.10;;;;;;5047032;28;20044;-56
2022/09/30 01:57:37;;;;;;;2.90;2.13;;;7.40;97.10;;;;;;5059211;28;20049;-57
2022/09/30 02:00:09;;;;;;;3.00;2.45;;;7.40;97.20;;;;;;5043553;28;20040;-57
2022/09/30 02:02:53;;;;;;;2.13;1.85;;;7.30;97.20;;;;;;5044693;28;20076;-57
2022/09/30 02:05:41;;;;;;;3.67;1.92;;;7.30;97.20;;;;;;5047108;28;20017;-56
2022/09/30 02:08:22;;;;;;;4.03;1.90;;;7.30;97.30;;;;;;5049635;28;20772;-57
2022/09/30 02:11:00;;;;;;;2.42;2.05;;;7.20;97.30;;;;;;5040761;28;20029;-56
2022/09/30 02:13:48;;;;;;;2.25;1.67;;;7.20;97.30;;;;;;5054309;28;20452;-56
2022/09/30 02:16:27;;;;;;;4.47;1.30;;;7.20;97.40;;;;;;5037705;28;20087;-57
2022/09/30 02:18:56;;;;;;;2.78;1.42;;;7.10;97.50;;;;;;5047464;28;20029;-57
2022/09/30 02:21:26;;;;;;;2.88;1.33;;;7.10;97.60;;;;;;5050355;28;20055;-56
2022/09/30 02:23:58;;;;;;;2.22;1.67;;;7.10;97.60;;;;;;5048037;28;20033;-56
2022/09/30 02:26:30;;;;;;;5.68;2.10;;;7.10;97.60;;;;;;5041538;28;20022;-56
2022/09/30 02:29:06;;;;;;;2.08;1.73;;;7.10;97.70;;;;;;5048245;28;20052;-57
2022/09/30 02:31:37;;;;;;;2.85;2.33;;;7.10;97.70;;;;;;5041237;28;20531;-57
2022/09/30 02:34:20;;;;;;;3.13;2.13;;;7.10;97.70;;;;;;5043972;28;20079;-56
2022/09/30 02:36:53;;;;;;;2.95;2.65;;;7.10;97.70;;;;;;5039655;28;20413;-57
2022/09/30 02:39:32;;;;;;;3.38;2.75;;;7.10;97.70;;;;;;5040300;28;20040;-56
2022/09/30 02:42:07;;;;;;;3.95;2.60;;;7.10;97.80;;;;;;5038727;28;20044;-56
2022/09/30 02:44:34;;;;;;;3.88;2.88;;;7.00;97.80;;;;;;5043632;28;20040;-53
2022/09/30 02:47:05;;;;;;;3.65;2.88;;;7.00;97.90;;;;;;5056232;28;20029;-56
2022/09/30 02:49:54;;;;;;;3.00;2.50;;;7.00;97.90;;;;;;5049594;28;20033;-57
2022/09/30 02:52:36;;;;;;;2.50;2.30;;;7.00;97.90;;;;;;5038874;28;20108;-55
2022/09/30 02:55:09;;;;;;;2.58;2.13;;;7.00;98.00;;;;;;5042482;28;20122;-55
2022/09/30 02:57:37;;;;;;;3.63;2.80;;;6.90;98.00;;;;;;5046200;28;20029;-55
2022/09/30 03:00:05;;;;;;;3.58;2.58;;;6.90;98.10;;;;;;5057229;28;20025;-56
2022/09/30 03:02:30;;;;;;;3.20;2.60;;;6.90;98.10;;;;;;5045806;28;20032;-54
2022/09/30 03:04:56;;;;;;;5.30;3.28;;;6.90;98.10;;;;;;5045050;28;20416;-56
2022/09/30 03:07:21;;;;;;;3.78;3.33;;;6.90;98.10;;;;;;5047102;28;20100;-56
2022/09/30 03:09:47;;;;;;;4.90;4.18;;;6.90;98.20;;;;;;5060183;28;20166;-56
2022/09/30 03:12:31;;;;;;;4.72;4.13;;;6.90;98.20;;;;;;5039523;28;20103;-56
2022/09/30 03:15:18;;;;;;;5.38;4.07;;;6.80;98.20;;;;;;5046884;28;20377;-56
2022/09/30 03:18:10;;;;;;;5.30;4.45;;;6.80;98.20;;;;;;5042483;28;20036;-55
2022/09/30 03:21:13;;;;;;;5.32;4.18;;;6.80;98.30;;;;;;5039795;28;20030;-57
2022/09/30 03:23:53;;;;;;;4.47;4.00;;;6.80;98.30;;;;;;5042616;28;20022;-57
2022/09/30 03:26:28;;;;;;;;;;;6.70;98.30;;;;;;5045810;28;20056;-56
2022/09/30 03:29:06;;;;;;;5.38;3.67;;;6.70;98.30;;;;;;5056285;28;19916;-54
2022/09/30 03:31:56;;;;;;;5.25;4.07;;;6.60;98.40;;;;;;5045267;28;20029;-57
2022/09/30 03:34:40;;;;;;;5.03;4.53;;;6.60;98.40;;;;;;5044982;28;20158;-56
2022/09/30 03:37:42;;;;;;;4.53;3.92;;;6.60;98.40;;;;;;5043601;28;20036;-55
2022/09/30 03:40:21;;;;;;;5.15;4.15;;;6.60;98.40;;;;;;5032068;28;20087;-56
2022/09/30 03:43:01;;;;;;;5.50;4.47;;;6.60;98.40;;;;;;5044498;28;20048;-56
2022/09/30 03:45:39;;;;;;;4.80;4.30;;;6.50;98.40;;;;;;5043711;28;20112;-56
2022/09/30 03:48:09;;;;;;;6.60;4.18;;;6.50;98.40;;;;;;5042601;28;20032;-57
2022/09/30 03:50:37;;;;;;;5.45;4.55;;;6.50;98.50;;;;;;5044516;28;20036;-56
2022/09/30 03:53:07;;;;;;;5.13;4.38;;;6.50;98.50;;;;;;5040886;28;20112;-57
2022/09/30 03:55:33;;;;;;;5.07;4.20;;;6.50;98.50;;;;;;5040669;28;20025;-56
2022/09/30 03:58:00;;;;;;;5.97;4.55;;;6.50;98.50;;;;;;5037676;28;20416;-56
2022/09/30 04:00:25;;;;;;;5.05;4.22;;;6.50;98.50;;;;;;5044242;28;20100;-54
2022/09/30 04:02:51;;;;;;;4.57;4.07;;;6.50;98.50;;;;;;5045901;28;20026;-56
2022/09/30 04:05:16;;;;;;;5.00;3.83;;;6.40;98.60;;;;;;5047816;28;20031;-56
2022/09/30 04:07:42;;;;;;;4.13;3.47;;;6.40;98.60;;;;;;5050086;28;20086;-56
2022/09/30 04:10:08;;;;;;;4.95;4.18;;;6.40;98.70;;;;;;5046645;28;20025;-56
2022/09/30 04:12:33;;;;;;;4.88;3.90;;;6.40;98.70;;;;;;5046511;28;20029;-56
2022/09/30 04:14:59;;;;;;;4.10;3.70;;;6.40;98.70;;;;;;5058238;28;20502;-56
2022/09/30 04:17:24;;;;;;;4.70;3.85;;;6.40;98.70;;;;;;5062220;28;20028;-56
2022/09/30 04:19:50;;;;;;;5.18;4.25;;;6.40;98.70;;;;;;5045810;28;20036;-55
2022/09/30 04:22:15;;;;;;;5.43;4.22;;;6.30;98.70;;;;;;5048220;28;20074;-57
2022/09/30 04:24:42;;;;;;;5.75;4.95;;;6.30;98.70;;;;;;5041800;28;20025;-55
2022/09/30 04:27:07;;;;;;;5.60;4.20;;;6.30;98.70;;;;;;5049369;28;20108;-56
2022/09/30 04:29:33;;;;;;;7.85;4.80;;;6.30;98.80;;;;;;5047613;28;20116;-57
2022/09/30 04:31:58;;;;;;;5.35;4.80;;;6.30;98.80;;;;;;5056281;28;20024;-54
2022/09/30 04:34:24;;;;;;;6.80;5.22;;;6.20;98.80;;;;;;5048896;28;20029;-56
2022/09/30 04:36:49;;;;;;;5.05;4.38;;;6.20;98.80;;;;;;5048890;28;20029;-54
2022/09/30 04:39:15;;;;;;;5.93;4.90;;;6.20;98.80;;;;;;5043038;28;20022;-56
2022/09/30 04:41:40;;;;;;;4.40;4.00;;;6.20;98.90;;;;;;5044997;28;20508;-56
2022/09/30 04:44:06;;;;;;;3.78;3.10;;;6.20;98.90;;;;;;5045760;28;20116;-55
2022/09/30 04:46:35;;;;;;;3.50;2.95;;;6.10;98.90;;;;;;5040586;28;20080;-54
2022/09/30 04:49:02;;;;;;;4.40;2.90;;;6.10;99.00;;;;;;5052237;28;20493;-54
2022/09/30 04:51:28;;;;;;;4.70;2.50;;;6.10;99.10;;;;;;5047617;28;20268;-54
2022/09/30 04:53:55;;;;;;;4.63;2.00;;;6.10;99.10;;;;;;5048454;28;20075;-56
2022/09/30 04:56:22;;;;;;;2.67;2.25;;;6.00;99.10;;;;;;5058590;28;20017;-55
2022/09/30 04:58:47;;;;;;;2.17;1.98;;;6.10;99.20;;;;;;5048746;28;20029;-56
2022/09/30 05:01:15;;;;;;;6.90;2.60;;;6.00;99.20;;;;;;5046448;28;20032;-57
2022/09/30 05:03:42;;;;;;;6.30;2.63;;;6.10;99.20;;;;;;5052540;28;20377;-56
2022/09/30 05:06:08;;;;;;;3.35;2.72;;;6.00;99.20;;;;;;5051842;28;20358;-53
2022/09/30 05:08:34;;;;;;;2.65;2.35;;;6.00;99.30;;;;;;5052634;28;20481;-55
2022/09/30 05:11:03;;;;;;;2.92;2.33;;;6.00;99.30;;;;;;5039081;28;20493;-57
2022/09/30 05:13:31;;;;;;;3.17;2.78;;;6.00;99.30;;;;;;5053409;28;20481;-57
2022/09/30 05:15:57;;;;;;;3.63;3.00;;;6.00;99.30;;;;;;5054240;28;20033;-56
2022/09/30 05:18:25;;;;;;;3.58;3.13;;;6.00;99.30;;;;;;5054283;28;20021;-56
2022/09/30 05:20:52;;;;;;;5.32;4.05;;;6.00;99.30;;;;;;5052576;28;20385;-56
2022/09/30 05:23:18;;;;;;;4.00;3.60;;;6.00;99.30;;;;;;5051709;28;20033;-56
2022/09/30 05:25:44;;;;;;;3.83;3.28;;;6.00;99.30;;;;;;5052563;28;20389;-55
2022/09/30 05:28:11;;;;;;;4.30;3.75;;;6.00;99.30;;;;;;5053559;28;20020;-56
2022/09/30 05:30:36;;;;;;;4.43;3.38;;;6.00;99.30;;;;;;5052920;28;20041;-56
2022/09/30 05:33:02;;;;;;;4.85;3.83;;;5.90;99.30;;;;;;5054063;28;20048;-56
2022/09/30 05:35:28;;;;;;;3.72;3.15;;;5.90;99.40;;;;;;5054118;28;20059;-55
2022/09/30 05:37:53;;;;;;;4.00;3.10;;;5.80;99.50;;;;;;5053964;28;20090;-56
2022/09/30 05:40:19;;;;;;;3.13;2.40;;;5.80;99.50;;;;;;5052184;28;20033;-55
2022/09/30 05:42:46;;;;;;;10.95;2.72;;;5.80;99.60;;;;;;5053604;28;20048;-54
2022/09/30 05:45:12;;;;;;;4.25;2.55;;;5.80;99.60;;;;;;5053583;28;20013;-57
2022/09/30 05:47:38;;;;;;;17.73;3.25;;;5.80;99.60;;;;;;5052269;28;20108;-56
2022/09/30 05:50:04;;;;;;;4.28;3.65;;;5.80;99.70;;;;;;5053872;28;20033;-54
2022/09/30 05:52:29;;;;;;;6.80;5.40;;;5.80;99.70;;;;;;5053767;28;20079;-53
2022/09/30 05:54:56;;;;;;;4.93;4.05;;;5.80;99.80;;;;;;5053397;28;20024;-53
2022/09/30 05:57:22;;;;;;;4.78;3.80;;;5.80;99.90;;;;;;5046798;28;20025;-55
2022/09/30 05:59:47;;;;;;;3.97;3.05;;;5.80;99.90;;;;;;5054507;28;20043;-57
2022/09/30 06:02:13;;;;;;;3.78;3.30;;;5.80;99.90;;;;;;5052588;28;20021;-56
2022/09/30 06:04:41;;;;;;;5.05;2.78;;;5.80;99.90;;;;;;5051739;28;20039;-56
2022/09/30 06:07:06;;;;;;;6.32;3.15;;;5.90;99.90;;;;;;5052010;28;20017;-52
2022/09/30 06:09:32;;;;;;;3.47;3.17;;;5.80;99.80;;;;;;5050784;28;20036;-55
2022/09/30 06:11:59;;;;;;;3.80;3.40;;;5.80;99.90;;;;;;5059327;28;20411;-56
2022/09/30 06:14:27;;;;;;;3.38;2.75;;;5.80;99.90;;;;;;5053411;28;20053;-53
2022/09/30 06:16:53;;;;;;;2.47;2.05;;;5.80;99.90;;;;;;5051115;28;20109;-54
2022/09/30 06:19:20;;;;;;;5.07;2.33;;;5.80;99.90;;;;;;5051017;28;20166;-57
2022/09/30 06:21:45;;;;;;;2.53;2.13;;;5.80;99.90;;;;;;5048670;28;20020;-55
2022/09/30 06:24:13;;;;;;;6.03;2.45;;;5.90;99.90;;;;;;5051719;28;20025;-53
2022/09/30 06:26:41;;;;;;;4.75;3.25;;;5.90;99.90;;;;;;5051645;28;20409;-57
2022/09/30 06:29:07;;;;;;;7.43;4.50;;;5.90;99.90;;;;;;5045407;28;20021;-56
2022/09/30 06:31:33;;;;;;;5.10;4.38;;;5.90;99.90;;;;;;5040750;28;20079;-54
2022/09/30 06:33:58;;;;;;;5.70;5.13;;;5.90;99.90;;;;;;5038627;28;20428;-55
2022/09/30 06:36:24;;;;;;;6.70;5.40;;;6.00;99.90;;;;;;5033198;28;20036;-55
2022/09/30 06:38:51;;;;;;;5.85;4.50;;;6.00;99.90;;;;;;5047621;28;20049;-55
2022/09/30 06:41:17;;;;;;;8.00;3.85;;;6.00;99.90;;;;;;5052798;28;20547;-52
2022/09/30 06:43:42;;;;;;;11.57;9.02;;;6.10;99.90;;;;;;5052726;28;20029;-52
2022/09/30 06:46:11;;;;;;;16.65;13.85;;;6.10;99.90;;;;;;5051538;28;20037;-56
2022/09/30 06:48:36;;;;;;;16.02;13.05;;;6.10;99.90;;;;;;5051098;28;20625;-55
2022/09/30 06:51:02;;;;;;;16.98;13.90;;;6.20;99.90;;;;;;5051687;28;20541;-54
2022/09/30 06:53:28;;;;;;;18.65;16.25;;;6.20;99.90;;;;;;5047315;28;20021;-54
2022/09/30 06:55:55;;;;;;;21.60;16.95;;;6.20;99.90;;;;;;5031765;28;20057;-56
2022/09/30 06:58:23;;;;;;;21.80;17.13;;;6.30;99.90;;;;;;5051653;28;20020;-56
2022/09/30 07:01:02;;;;;;;21.45;17.15;;;6.30;99.90;;;;;;5051746;28;20056;-55
2022/09/30 07:03:31;;;;;;;22.23;17.38;;;6.40;99.90;;;;;;5039768;28;20049;-54
2022/09/30 07:06:02;;;;;;;24.10;17.45;;;6.40;99.90;;;;;;5052384;28;20096;-55
2022/09/30 07:08:30;;;;;;;18.73;16.30;;;6.50;99.90;;;;;;5051418;28;20366;-54
2022/09/30 07:11:04;;;;;;;29.25;24.05;;;6.60;99.90;;;;;;5052146;28;20028;-52
2022/09/30 07:13:32;;;;;;;39.53;29.83;;;6.70;99.90;;;;;;5051397;28;20029;-54
2022/09/30 07:15:58;;;;;;;36.47;30.58;;;6.80;99.90;;;;;;5067314;28;20066;-54
2022/09/30 07:18:25;;;;;;;39.03;30.02;;;6.90;99.90;;;;;;5052010;28;20021;-54
2022/09/30 07:20:52;;;;;;;39.58;31.45;;;7.00;99.90;;;;;;5050639;28;20043;-55
2022/09/30 07:23:19;;;;;;;36.83;29.63;;;7.10;99.90;;;;;;5058017;28;20032;-57
2022/09/30 07:26:00;;;;;;;36.45;29.75;;;7.10;99.90;;;;;;5050860;28;20025;-56
2022/09/30 07:28:30;;;;;;;36.95;30.25;;;7.20;99.90;;;;;;5047744;28;20021;-55
2022/09/30 07:30:57;;;;;;;35.55;29.77;;;7.30;99.90;;;;;;5050456;28;20024;-54
2022/09/30 07:33:24;;;;;;;37.13;30.30;;;7.40;99.90;;;;;;5047531;28;20395;-56
2022/09/30 07:35:54;;;;;;;38.92;32.53;;;7.50;99.90;;;;;;5053076;28;20025;-54
2022/09/30 07:38:22;;;;;;;40.67;32.88;;;7.60;99.90;;;;;;5067440;28;20439;-55
2022/09/30 07:41:00;;;;;;;41.20;33.42;;;7.70;99.90;;;;;;5052817;28;20041;-54
2022/09/30 07:43:33;;;;;;;43.58;32.95;;;7.80;99.90;;;;;;5054999;28;20021;-56
2022/09/30 07:46:03;;;;;;;41.88;32.85;;;7.90;99.90;;;;;;5048271;28;20036;-54
2022/09/30 07:51:02;;;;;;;38.95;32.40;;;8.10;99.90;;;;;;5056416;28;20477;-55
2022/09/30 07:53:28;;;;;;;40.30;33.80;;;8.10;99.90;;;;;;5041051;28;20036;-55
2022/09/30 07:55:53;;;;;;;43.42;36.20;;;8.20;99.90;;;;;;5054855;28;20435;-54
2022/09/30 07:58:19;;;;;;;44.20;35.38;;;8.30;99.90;;;;;;5054929;28;20393;-56
2022/09/30 08:00:49;;;;;;;46.03;37.13;;;8.40;99.90;;;;;;5054770;28;20028;-56
2022/09/30 08:03:15;;;;;;;46.67;36.35;;;8.50;99.90;;;;;;5055547;28;20017;-55
2022/09/30 08:05:43;;;;;;;42.17;35.92;;;8.50;99.90;;;;;;5055442;28;20028;-54
2022/09/30 08:08:10;;;;;;;42.88;36.03;;;8.60;99.90;;;;;;5041766;28;20023;-56
2022/09/30 08:10:35;;;;;;;43.65;36.63;;;8.70;99.90;;;;;;5055629;28;20021;-55
2022/09/30 08:13:01;;;;;;;42.70;36.47;;;8.80;99.90;;;;;;5055772;28;20029;-56
2022/09/30 08:15:27;;;;;;;42.83;36.85;;;8.90;99.90;;;;;;5053975;28;20358;-55
2022/09/30 08:17:52;;;;;;;41.85;34.60;;;8.90;99.90;;;;;;5070996;28;20056;-55
2022/09/30 08:20:18;;;;;;;49.08;39.85;;;9.10;99.90;;;;;;5069154;28;20025;-56
2022/09/30 08:22:43;;;;;;;49.40;40.90;;;9.20;99.90;;;;;;5058717;28;20021;-56
2022/09/30 08:25:09;;;;;;;49.70;39.47;;;9.30;99.90;;;;;;5055030;28;20032;-55
2022/09/30 08:27:34;;;;;;;46.50;40.17;;;9.40;99.90;;;;;;5054095;28;20025;-56
2022/09/30 08:30:00;;;;;;;46.63;39.35;;;9.50;99.90;;;;;;5054404;28;20048;-57
2022/09/30 08:32:29;;;;;;;48.22;40.53;;;9.60;99.90;;;;;;5053734;28;20031;-56
2022/09/30 08:34:55;;;;;;;46.78;41.60;;;9.70;99.90;;;;;;5055227;28;20481;-55
2022/09/30 08:37:21;;;;;;;45.90;39.88;;;9.80;99.90;;;;;;5055015;28;20090;-56
2022/09/30 08:39:47;;;;;;;42.50;37.30;;;9.90;99.90;;;;;;5070570;28;20025;-55
2022/09/30 08:42:31;;;;;;;47.72;40.05;;;10.00;99.90;;;;;;5053388;28;20122;-56
2022/09/30 08:45:14;;;;;;;44.65;38.75;;;10.10;99.90;;;;;;5050437;28;20025;-56
2022/09/30 08:47:55;;;;;;;46.38;39.30;;;10.30;99.90;;;;;;5042108;28;20037;-55
2022/09/30 08:50:29;;;;;;;42.58;37.97;;;10.40;99.90;;;;;;5054530;28;20021;-56
2022/09/30 08:53:10;;;;;;;45.92;39.03;;;10.50;99.90;;;;;;5070330;28;20029;-54
2022/09/30 08:55:41;;;;;;;43.90;37.05;;;10.70;99.90;;;;;;5054626;28;20043;-52
2022/09/30 08:58:19;;;;;;;40.42;35.83;;;10.80;99.90;;;;;;5053936;28;20049;-56
2022/09/30 09:00:45;;;;;;;40.10;35.30;;;10.90;99.90;;;;;;5053959;28;20025;-54
2022/09/30 09:03:13;;;;;;;41.50;35.72;;;11.00;99.90;;;;;;5053557;28;20013;-51
2022/09/30 09:05:57;;;;;;;39.17;35.03;;;11.10;99.90;;;;;;5058122;28;20109;-56
2022/09/30 09:08:48;;;;;;;38.97;34.28;;;11.30;99.90;;;;;;5043775;28;20020;-54
2022/09/30 09:11:20;;;;;;;38.08;33.70;;;11.40;99.90;;;;;;5053355;28;20043;-55
2022/09/30 09:13:55;;;;;;;34.65;30.08;;;11.50;99.90;;;;;;5054131;28;20044;-54
2022/09/30 09:16:49;;;;;;;34.03;30.33;;;11.70;99.90;;;;;;5033449;28;20396;-53
2022/09/30 09:19:28;;;;;;;33.97;29.27;;;11.80;99.90;;;;;;5051634;28;20060;-56
2022/09/30 09:21:56;;;;;;;;;;;11.90;99.90;;;;;;5041230;28;20024;-54
2022/09/30 09:24:40;;;;;;;33.65;30.13;;;12.00;99.90;;;;;;5052606;28;19916;-56
2022/09/30 09:27:25;;;;;;;32.00;28.35;;;12.10;99.90;;;;;;5052795;28;20045;-55
2022/09/30 09:30:05;;;;;;;25.58;22.75;;;12.20;99.90;;;;;;5065096;28;20499;-54
2022/09/30 09:32:30;;;;;;;;;;;12.40;99.90;;;;;;5050023;28;20071;-55
2022/09/30 09:35:00;;;;;;;24.13;21.52;;;12.40;99.90;;;;;;5052314;28;19983;-56
2022/09/30 09:40:56;;;;;;;23.05;18.98;;;12.70;99.90;;;;;;5053760;28;20091;-56
2022/09/30 09:43:42;;;;;;;17.15;15.32;;;13.00;99.90;;;;;;5052756;28;20389;-56
2022/09/30 09:46:47;;;;;;;15.93;14.23;;;13.20;99.90;;;;;;5043649;28;20017;-56
2022/09/30 09:49:19;;;;;;;13.93;12.52;;;13.30;99.90;;;;;;5038153;28;20123;-53
2022/09/30 09:51:58;;;;;;;10.90;9.77;;;13.50;99.90;;;;;;5053708;28;20021;-56
2022/09/30 09:54:26;;;;;;;10.70;9.70;;;13.70;99.90;;;;;;5054077;28;20033;-56
2022/09/30 09:56:53;;;;;;;13.32;11.93;;;13.90;99.90;;;;;;5051927;28;20388;-58
2022/09/30 09:59:19;;;;;;;10.77;9.68;;;14.00;98.70;;;;;;5052075;28;20082;-55
2022/09/30 10:01:50;;;;;;;12.10;10.27;;;14.20;98.40;;;;;;5052431;28;20029;-57
2022/09/30 10:04:22;;;;;;;13.00;11.50;;;14.40;98.00;;;;;;5053011;28;20021;-56
2022/09/30 10:06:56;;;;;;;14.02;10.73;;;14.60;96.80;;;;;;5052397;28;20025;-55
2022/09/30 10:09:24;;;;;;;13.07;11.40;;;14.70;95.20;;;;;;5052909;28;20029;-56
2022/09/30 10:12:11;;;;;;;14.23;12.25;;;14.80;95.20;;;;;;5048655;28;20037;-56
2022/09/30 10:14:54;;;;;;;11.82;10.63;;;14.90;95.40;;;;;;5040732;28;20092;-57
2022/09/30 10:17:31;;;;;;;11.45;9.90;;;15.20;94.40;;;;;;5051951;28;20124;-57
2022/09/30 10:20:16;;;;;;;9.93;8.93;;;15.30;93.50;;;;;;5053359;28;20021;-57
2022/09/30 10:22:42;;;;;;;8.10;7.28;;;15.50;92.90;;;;;;5039901;28;20021;-56
2022/09/30 10:25:13;;;;;;;7.30;6.60;;;16.00;94.30;;;;;;5057351;28;20095;-58
2022/09/30 10:28:00;;;;;;;7.90;6.85;;;17.80;91.90;;;;;;5050448;28;20025;-58
2022/09/30 10:30:37;;;;;;;6.25;5.32;;;20.40;81.70;;;;;;5051974;28;20450;-58
2022/09/30 10:33:16;;;;;;;5.60;4.32;;;22.10;71.60;;;;;;5040248;28;20017;-57
2022/09/30 10:36:17;;;;;;;3.92;3.53;;;23.60;66.70;;;;;;5051529;28;20047;-57
2022/09/30 10:38:58;;;;;;;4.30;3.90;;;25.70;62.90;;;;;;5052494;28;20099;-58
2022/09/30 10:41:26;;;;;;;5.72;4.50;;;27.90;56.40;;;;;;5052836;28;20037;-58
2022/09/30 10:43:55;;;;;;;4.32;3.08;;;28.70;50.30;;;;;;5048080;28;20013;-57
2022/09/30 10:46:30;;;;;;;6.35;5.75;;;29.80;51.10;;;;;;5042094;28;20021;-58
2022/09/30 10:48:57;;;;;;;5.22;3.90;;;31.10;45.60;;;;;;5051273;28;20020;-58
2022/09/30 10:51:27;;;;;;;8.43;6.32;;;31.40;44.60;;;;;;5052556;28;20443;-58
2022/09/30 10:53:54;;;;;;;6.53;5.82;;;31.20;41.90;;;;;;5052667;28;20013;-58
2022/09/30 10:56:36;;;;;;;5.90;4.63;;;30.90;42.60;;;;;;5051072;28;20053;-58
2022/09/30 10:59:06;;;;;;;5.60;5.00;;;32.00;42.30;;;;;;5052656;28;20431;-58
2022/09/30 11:01:43;;;;;;;4.60;4.20;;;31.90;41.30;;;;;;5052128;28;20013;-58
2022/09/30 11:04:40;;;;;;;3.45;3.15;;;32.80;40.60;;;;;;5038489;28;20018;-58
2022/09/30 11:07:28;;;;;;;4.30;3.90;;;35.10;40.30;;;;;;5044144;28;20048;-58
2022/09/30 11:10:31;;;;;;;7.77;7.07;;;36.30;37.10;;;;;;5031825;28;20484;-58
2022/09/30 11:13:25;;;;;;;5.88;5.38;;;35.20;35.60;;;;;;5039615;28;20021;-58
2022/09/30 11:16:11;;;;;;;4.70;4.20;;;33.90;36.00;;;;;;5052121;28;20071;-58
2022/09/30 11:18:52;;;;;;;4.50;4.10;;;33.40;37.00;;;;;;5052103;28;20025;-58
2022/09/30 11:21:25;;;;;;;5.30;4.88;;;33.60;36.60;;;;;;5042023;28;20025;-58
2022/09/30 11:24:16;;;;;;;3.22;2.80;;;34.80;35.70;;;;;;5048265;28;20020;-58
2022/09/30 11:27:09;;;;;;;3.47;3.17;;;34.50;36.00;;;;;;5052200;28;20029;-58
2022/09/30 11:29:37;;;;;;;3.60;3.10;;;35.20;35.70;;;;;;5052019;28;20021;-58
2022/09/30 11:32:09;;;;;;;;;;;35.30;34.60;;;;;;5052946;28;20021;-58
2022/09/30 11:34:50;;;;;;;2.60;2.40;;;35.80;34.50;;;;;;5051073;28;19905;-58
2022/09/30 11:37:34;;;;;;;3.08;2.78;;;34.70;34.30;;;;;;5052084;28;20033;-58
2022/09/30 11:40:31;;;;;;;2.50;2.00;;;34.60;35.00;;;;;;5052194;28;20033;-58
2022/09/30 11:43:13;;;;;;;2.10;1.80;;;34.90;35.30;;;;;;5040098;28;20041;-57
2022/09/30 11:45:55;;;;;;;1.75;1.30;;;33.10;35.50;;;;;;5051788;28;20036;-58
2022/09/30 11:49:00;;;;;;;1.90;1.70;;;32.30;37.00;;;;;;5051435;28;20021;-58
2022/09/30 11:52:03;;;;;;;1.60;1.05;;;31.90;37.20;;;;;;5050291;28;20025;-58
2022/09/30 11:54:51;;;;;;;2.03;1.75;;;33.80;37.00;;;;;;5045452;28;20207;-58
2022/09/30 11:57:19;;;;;;;;;;;35.50;35.90;;;;;;5052426;28;20033;-58
2022/09/30 11:59:54;;;;;;;1.73;1.10;;;37.20;35.30;;;;;;5038523;28;19909;-58
2022/09/30 12:02:52;;;;;;;2.10;1.20;;;37.60;32.70;;;;;;5040284;28;20167;-58
2022/09/30 12:05:38;;;;;;;1.58;0.88;;;35.60;32.60;;;;;;5037786;28;20108;-58
2022/09/30 12:08:25;;;;;;;2.28;1.17;;;35.00;34.90;;;;;;5051015;28;20473;-58
2022/09/30 12:11:08;;;;;;;1.20;0.60;;;35.40;34.10;;;;;;5050471;28;20076;-58
2022/09/30 12:13:56;;;;;;;1.25;0.77;;;35.40;34.10;;;;;;5051944;28;20029;-58
2022/09/30 12:16:25;;;;;;;0.60;0.60;;;34.40;33.90;;;;;;5039838;28;20033;-58
2022/09/30 12:19:02;;;;;;;1.17;0.90;;;34.60;33.70;;;;;;5052745;28;20029;-58
2022/09/30 12:22:06;;;;;;;1.00;0.90;;;33.90;33.70;;;;;;5055280;28;20044;-58
2022/09/30 12:24:37;;;;;;;0.75;0.60;;;32.60;35.40;;;;;;5044679;28;20025;-58
2022/09/30 12:27:10;;;;;;;1.10;0.80;;;33.40;35.50;;;;;;5053254;28;20385;-58
2022/09/30 12:30:18;;;;;;;1.58;1.00;;;33.80;34.10;;;;;;5050901;28;20500;-58
2022/09/30 12:33:04;;;;;;;1.08;0.77;;;33.50;34.60;;;;;;5035640;28;20018;-58
2022/09/30 12:36:01;;;;;;;1.67;0.80;;;31.00;36.70;;;;;;5048690;28;20029;-58
2022/09/30 12:38:54;;;;;;;0.70;0.50;;;30.70;37.50;;;;;;5055139;28;20389;-58
2022/09/30 12:42:10;;;;;;;0.88;0.68;;;31.10;37.40;;;;;;5043784;28;20056;-58
2022/09/30 12:45:26;;;;;;;1.35;0.98;;;31.90;37.30;;;;;;5028659;28;20053;-58
2022/09/30 12:47:54;;;;;;;1.85;1.00;;;32.40;36.70;;;;;;5010685;28;20397;-58
2022/09/30 12:50:24;;;;;;;2.65;0.70;;;31.10;36.60;;;;;;5054724;28;20029;-58
2022/09/30 12:52:50;;;;;;;1.15;0.93;;;29.80;38.80;;;;;;5043259;28;20064;-58
2022/09/30 12:55:39;;;;;;;2.45;1.20;;;29.30;39.10;;;;;;5053578;28;20063;-58
2022/09/30 12:58:15;;;;;;;1.65;0.80;;;28.60;39.60;;;;;;5053147;28;20021;-58
2022/09/30 13:00:40;;;;;;;1.02;0.68;;;28.20;40.30;;;;;;5062228;28;20032;-58
2022/09/30 13:03:17;;;;;;;1.13;1.02;;;28.90;40.10;;;;;;5042545;28;21199;-58
2022/09/30 13:05:51;;;;;;;0.70;0.60;;;29.70;39.30;;;;;;5054914;28;20021;-58
2022/09/30 13:08:30;;;;;;;1.45;1.05;;;30.70;38.90;;;;;;5064987;28;20358;-58
2022/09/30 13:10:58;;;;;;;1.30;0.65;;;31.10;38.10;;;;;;5049143;28;20021;-58
2022/09/30 13:13:27;;;;;;;0.90;0.60;;;30.90;38.50;;;;;;5045111;28;20026;-58
2022/09/30 13:16:02;;;;;;;0.65;0.60;;;30.20;38.30;;;;;;5048116;28;20021;-58
2022/09/30 13:18:28;;;;;;;1.40;1.23;;;29.30;39.40;;;;;;5036773;28;20017;-58
2022/09/30 13:21:07;;;;;;;1.40;0.98;;;27.90;41.00;;;;;;5051003;28;20025;-57
2022/09/30 13:23:41;;;;;;;1.48;1.15;;;26.20;43.10;;;;;;5051807;28;20032;-58
2022/09/30 13:26:30;;;;;;;2.28;1.10;;;24.30;46.20;;;;;;5051276;28;20049;-58
2022/09/30 13:28:58;;;;;;;2.42;0.90;;;23.10;48.10;;;;;;5052909;28;20428;-58
2022/09/30 13:31:31;;;;;;;1.63;0.80;;;23.00;50.10;;;;;;5045499;28;20096;-58